Madeline — WDE3220 — position and weather

sailwx.info

Track history (hours):
 
Tides and Currents Weather Stations Pressure Air Temp Water Temp Dewpoint Dewpoint Depression Visibility Wind Speed Wind Dir Waves Ship Positions

Madeline

Owner: TUG MADELINE, LLC, NEW CASTLE, DE. More information available from US FCC via Universal Licensing System and Coast Guard Vessel Documentation Center.

Last reported at 2015-Sep-03 08:33 UTC. Time now 2015-Sep-03 08:58 UTC.
Position N 39°48' W 075°26'.

; draft 4.6 m.

Type: Tug. MMSI: 367335830.

Date/timePositionNaut miles runAvg speedWind from/ knotsBaromVisibWave heightAir tempDewpointWater temp
2015-Sep-03 08:33N 39°48' W 075°26'6 6.1
2015-Sep-03 07:33N 39°43' W 075°31'0 0.0
2015-Sep-03 06:34N 39°43' W 075°31'0 0.0
2015-Sep-03 05:34N 39°43' W 075°31'0 0.0
2015-Sep-03 04:33N 39°43' W 075°31'0 0.0
2015-Sep-03 03:33N 39°43' W 075°31'0 0.0
2015-Sep-03 02:33N 39°43' W 075°31'0 0.0
2015-Sep-03 01:33N 39°43' W 075°31'0 0.0
2015-Sep-03 00:34N 39°43' W 075°31'0 0.0
2015-Sep-02 23:33N 39°43' W 075°31'0 0.0
2015-Sep-02 22:33N 39°43' W 075°31'0 0.0
2015-Sep-02 21:33N 39°43' W 075°31'0 0.0
2015-Sep-02 20:34N 39°43' W 075°31'0 0.4
2015-Sep-02 19:33N 39°43' W 075°32'0 0.4
2015-Sep-02 18:34N 39°43' W 075°31'1 0.7
2015-Sep-02 17:34N 39°43' W 075°30'7 6.7
2015-Sep-02 16:34N 39°48' W 075°25'1 0.9
2015-Sep-02 15:34N 39°48' W 075°26'6 6.1
2015-Sep-02 14:33N 39°43' W 075°31'0 0.0
2015-Sep-02 13:33N 39°43' W 075°31'0 0.0
2015-Sep-02 12:33N 39°43' W 075°31'0 0.0
2015-Sep-02 11:33N 39°43' W 075°31'1 0.7
2015-Sep-02 10:33N 39°43' W 075°30'0 0.2
2015-Sep-02 09:33N 39°43' W 075°30'0 0.2
2015-Sep-02 08:33N 39°43' W 075°30'0 0.2
2015-Sep-02 07:34N 39°43' W 075°30'0 0.1
2015-Sep-02 06:33N 39°43' W 075°30'1 0.9
2015-Sep-02 05:34N 39°43' W 075°31'0 0.0
2015-Sep-02 04:34N 39°43' W 075°31'0 0.0
2015-Sep-02 03:33N 39°43' W 075°31'0 0.0
2015-Sep-02 02:33N 39°43' W 075°31'0 0.0
2015-Sep-02 01:33N 39°43' W 075°31'0 0.0
2015-Sep-02 00:33N 39°43' W 075°31'0 0.0
2015-Sep-01 23:33N 39°43' W 075°31'0 0.0
2015-Sep-01 22:34N 39°43' W 075°31'0 0.0
2015-Sep-01 21:34N 39°43' W 075°31'0 0.0
2015-Sep-01 20:33N 39°43' W 075°31'8 7.7
2015-Sep-01 19:34N 39°36' W 075°36'1 1.4
2015-Sep-01 18:34N 39°35' W 075°36'2 2.4
2015-Sep-01 17:34N 39°38' W 075°36'10 9.9
2015-Sep-01 16:33N 39°46' W 075°29'4 3.9
2015-Sep-01 15:33N 39°49' W 075°25'0 0.0
2015-Sep-01 14:33N 39°49' W 075°25'0 0.0
2015-Sep-01 13:34N 39°49' W 075°25'0 0.0
2015-Sep-01 12:34N 39°49' W 075°25'0 0.0
2015-Sep-01 11:33N 39°49' W 075°25'0 0.0
2015-Sep-01 10:34N 39°49' W 075°25'0 0.0
2015-Sep-01 09:34N 39°49' W 075°25'1 1.0
2015-Sep-01 08:34N 39°48' W 075°26'0 0.0
2015-Sep-01 07:34N 39°48' W 075°26'1 0.7
2015-Sep-01 06:33N 39°48' W 075°25'1 0.6
2015-Sep-01 05:34N 39°49' W 075°25'0 0.0
2015-Sep-01 04:33N 39°49' W 075°25'0 0.0
2015-Sep-01 03:34N 39°49' W 075°25'1 1.0
2015-Sep-01 02:33N 39°48' W 075°26'6 6.4
2015-Sep-01 01:34N 39°43' W 075°31'0 0.0
2015-Sep-01 00:34N 39°43' W 075°31'0 0.0
2015-Aug-31 23:33N 39°43' W 075°31'0 0.0
2015-Aug-31 22:33N 39°43' W 075°31'0 0.0
2015-Aug-31 21:33N 39°43' W 075°31'0 0.0
2015-Aug-31 20:33N 39°43' W 075°31'0 0.0
2015-Aug-31 19:34N 39°43' W 075°31'0 0.0
2015-Aug-31 18:34N 39°43' W 075°31'0 0.0
2015-Aug-31 17:33N 39°43' W 075°31'0 0.0
2015-Aug-31 16:34N 39°43' W 075°31'0 0.0
2015-Aug-31 15:34N 39°43' W 075°31'0 0.0
2015-Aug-31 14:33N 39°43' W 075°31'0 0.0
2015-Aug-31 13:33N 39°43' W 075°31'1 0.5
2015-Aug-31 12:34N 39°43' W 075°32'1 0.9
2015-Aug-31 11:33N 39°43' W 075°31'0 0.4
2015-Aug-31 10:33N 39°43' W 075°31'0 0.0
2015-Aug-31 09:33N 39°43' W 075°31'0 0.0
2015-Aug-31 08:33N 39°43' W 075°31'0 0.0
2015-Aug-31 07:33N 39°43' W 075°31'1 1.0
2015-Aug-31 06:34N 39°42' W 075°31'1 1.0
2015-Aug-31 05:34N 39°43' W 075°31'0 0.0
2015-Aug-31 04:34N 39°43' W 075°31'0 0.0
2015-Aug-31 03:34N 39°43' W 075°31'0 0.0
2015-Aug-31 02:34N 39°43' W 075°31'0 0.0
2015-Aug-31 01:33N 39°43' W 075°31'0 0.0
2015-Aug-31 00:34N 39°43' W 075°31'0 0.0
2015-Aug-30 23:33N 39°43' W 075°31'0 0.0
2015-Aug-30 22:33N 39°43' W 075°31'0 0.0
2015-Aug-30 21:34N 39°43' W 075°31'0 0.0
2015-Aug-30 20:34N 39°43' W 075°31'0 0.0
2015-Aug-30 19:33N 39°43' W 075°31'0 0.0
2015-Aug-30 18:33N 39°43' W 075°31'0 0.0
2015-Aug-30 17:33N 39°43' W 075°31'0 0.0
2015-Aug-30 16:33N 39°43' W 075°31'0 0.0
2015-Aug-30 15:34N 39°43' W 075°31'0 0.0
2015-Aug-30 14:33N 39°43' W 075°31'0 0.0
2015-Aug-30 13:33N 39°43' W 075°31'0 0.2
2015-Aug-30 12:34N 39°43' W 075°31'0 0.1
2015-Aug-30 11:34N 39°43' W 075°31'0 0.1
2015-Aug-30 10:34N 39°43' W 075°31'0 0.0
2015-Aug-30 09:33N 39°43' W 075°31'0 0.0
2015-Aug-30 08:33N 39°43' W 075°31'1 0.5
2015-Aug-30 07:33N 39°43' W 075°31'1 0.5
2015-Aug-30 06:34N 39°43' W 075°31'0 0.0
2015-Aug-30 05:33N 39°43' W 075°31'0 0.0
2015-Aug-30 04:34N 39°43' W 075°31'0 0.0
2015-Aug-30 03:33N 39°43' W 075°31'0 0.0
2015-Aug-30 02:34N 39°43' W 075°31'0 0.0
2015-Aug-30 01:34N 39°43' W 075°31'0 0.0
2015-Aug-30 00:34N 39°43' W 075°31'0 0.0
2015-Aug-29 23:34N 39°43' W 075°31'0 0.0
2015-Aug-29 22:33N 39°43' W 075°31'0 0.0
2015-Aug-29 21:34N 39°43' W 075°31'0 0.0
2015-Aug-29 20:33N 39°43' W 075°31'0 0.0
2015-Aug-29 19:33N 39°43' W 075°31'0 0.0
2015-Aug-29 18:33N 39°43' W 075°31'0 0.0
2015-Aug-29 17:34N 39°43' W 075°31'0 0.0
2015-Aug-29 16:33N 39°43' W 075°31'0 0.0
2015-Aug-29 15:34N 39°43' W 075°31'0 0.0
2015-Aug-29 14:33N 39°43' W 075°31'0 0.0
2015-Aug-29 13:33N 39°43' W 075°31'0 0.0
2015-Aug-29 12:34N 39°43' W 075°31'0 0.0
2015-Aug-29 11:33N 39°43' W 075°31'0 0.0
2015-Aug-29 10:34N 39°43' W 075°31'0 0.0
2015-Aug-29 09:34N 39°43' W 075°31'0 0.0
2015-Aug-29 08:33N 39°43' W 075°31'0 0.0
2015-Aug-29 07:33N 39°43' W 075°31'0 0.0
2015-Aug-29 06:33N 39°43' W 075°31'0 0.0
2015-Aug-29 05:34N 39°43' W 075°31'0 0.2
2015-Aug-29 04:33N 39°43' W 075°31'0 0.2
2015-Aug-29 03:34N 39°43' W 075°31'0 0.0
2015-Aug-29 02:33N 39°43' W 075°31'0 0.0
2015-Aug-29 01:33N 39°43' W 075°31'1 0.8
2015-Aug-29 00:34N 39°42' W 075°31'1 0.8
2015-Aug-28 23:33N 39°43' W 075°31'0 0.0
2015-Aug-28 22:33N 39°43' W 075°31'0 0.0
2015-Aug-28 21:34N 39°43' W 075°31'0 0.0
2015-Aug-28 20:33N 39°43' W 075°31'0 0.0
2015-Aug-28 19:34N 39°43' W 075°31'0 0.0
2015-Aug-28 18:33N 39°43' W 075°31'0 0.0
2015-Aug-28 17:34N 39°43' W 075°31'0 0.0
2015-Aug-28 16:34N 39°43' W 075°31'0 0.0
2015-Aug-28 15:33N 39°43' W 075°31'0 0.0
2015-Aug-28 14:34N 39°43' W 075°31'0 0.0
2015-Aug-28 13:33N 39°43' W 075°31'0 0.0
2015-Aug-28 12:34N 39°43' W 075°31'0 0.1
2015-Aug-28 11:33N 39°43' W 075°31'1 1.4
2015-Aug-28 10:33N 39°42' W 075°31'1 1.5
2015-Aug-28 09:34N 39°43' W 075°31'0 0.0
2015-Aug-28 08:34N 39°43' W 075°31'0 0.0
2015-Aug-28 07:33N 39°43' W 075°31'0 0.0
2015-Aug-28 06:34N 39°43' W 075°31'0 0.0
2015-Aug-28 05:34N 39°43' W 075°31'0 0.0
2015-Aug-28 04:34N 39°43' W 075°31'0 0.0
2015-Aug-28 03:34N 39°43' W 075°31'0 0.0
2015-Aug-28 02:34N 39°43' W 075°31'0 0.0
2015-Aug-28 01:33N 39°43' W 075°31'3 2.8
2015-Aug-28 00:33N 39°45' W 075°29'4 4.5
2015-Aug-27 23:34N 39°49' W 075°25'0 0.0
2015-Aug-27 22:34N 39°49' W 075°25'0 0.0
2015-Aug-27 21:34N 39°49' W 075°25'0 0.0
2015-Aug-27 20:33N 39°49' W 075°25'0 0.0
2015-Aug-27 19:34N 39°49' W 075°25'0 0.0
2015-Aug-27 18:34N 39°49' W 075°25'0 0.0
2015-Aug-27 17:34N 39°49' W 075°25'1 1.0
2015-Aug-27 16:33N 39°48' W 075°26'1 0.5
2015-Aug-27 15:33N 39°48' W 075°25'0 0.5
2015-Aug-27 14:33N 39°48' W 075°26'6 6.4
2015-Aug-27 13:34N 39°43' W 075°31'0 0.0
2015-Aug-27 12:34N 39°43' W 075°31'0 0.0
2015-Aug-27 11:33N 39°43' W 075°31'0 0.0
2015-Aug-27 10:33N 39°43' W 075°31'0 0.0
2015-Aug-27 09:34N 39°43' W 075°31'0 0.0
2015-Aug-27 08:34N 39°43' W 075°31'0 0.0
2015-Aug-27 07:34N 39°43' W 075°31'0 0.0
2015-Aug-27 06:33N 39°43' W 075°31'0 0.0
2015-Aug-27 05:34N 39°43' W 075°31'0 0.0
2015-Aug-27 04:34N 39°43' W 075°31'0 0.1
2015-Aug-27 03:33N 39°43' W 075°31'1 0.7
2015-Aug-27 02:34N 39°43' W 075°30'1 0.7
2015-Aug-27 01:34N 39°43' W 075°31'0 0.3
2015-Aug-27 00:34N 39°43' W 075°31'0 0.2
2015-Aug-26 23:34N 39°43' W 075°31'0 0.0
2015-Aug-26 22:34N 39°43' W 075°31'0 0.0
2015-Aug-26 21:33N 39°43' W 075°31'0 0.0
2015-Aug-26 20:34N 39°43' W 075°31'0 0.0
2015-Aug-26 19:33N 39°43' W 075°31'0 0.0
2015-Aug-26 18:34N 39°43' W 075°31'0 0.0
2015-Aug-26 17:33N 39°43' W 075°31'0 0.0
2015-Aug-26 16:33N 39°43' W 075°31'0 0.0
2015-Aug-26 15:34N 39°43' W 075°31'0 0.0
2015-Aug-26 14:33N 39°43' W 075°31'0 0.0
2015-Aug-26 13:34N 39°43' W 075°31'0 0.0
2015-Aug-26 12:33N 39°43' W 075°31'0 0.0
2015-Aug-26 11:33N 39°43' W 075°31'0 0.0
2015-Aug-26 10:33N 39°43' W 075°31'0 0.0
2015-Aug-26 09:34N 39°43' W 075°31'0 0.0
2015-Aug-26 08:34N 39°43' W 075°31'0 0.0
2015-Aug-26 07:33N 39°43' W 075°31'0 0.0
2015-Aug-26 06:34N 39°43' W 075°31'0 0.0
2015-Aug-26 05:33N 39°43' W 075°31'0 0.0
2015-Aug-26 04:33N 39°43' W 075°31'0 0.0
2015-Aug-26 03:33N 39°43' W 075°31'0 0.0
2015-Aug-26 02:33N 39°43' W 075°31'0 0.0
2015-Aug-26 01:34N 39°43' W 075°31'0 0.0
2015-Aug-26 00:34N 39°43' W 075°31'0 0.0
2015-Aug-25 23:33N 39°43' W 075°31'0 0.0
2015-Aug-25 22:33N 39°43' W 075°31'0 0.0
2015-Aug-25 21:34N 39°43' W 075°31'0 0.0
2015-Aug-25 20:34N 39°43' W 075°31'0 0.0
2015-Aug-25 19:34N 39°43' W 075°31'0 0.0
2015-Aug-25 18:34N 39°43' W 075°31'0 0.0
2015-Aug-25 17:33N 39°43' W 075°31'1 0.5
2015-Aug-25 16:34N 39°43' W 075°31'1 0.5
2015-Aug-25 15:33N 39°43' W 075°31'0 0.0
2015-Aug-25 14:33N 39°43' W 075°31'0 0.0
2015-Aug-25 13:33N 39°43' W 075°31'0 0.0
2015-Aug-25 12:33N 39°43' W 075°31'0 0.0
2015-Aug-25 11:33N 39°43' W 075°31'0 0.0
2015-Aug-25 10:33N 39°43' W 075°31'0 0.0
2015-Aug-25 09:33N 39°43' W 075°31'0 0.3
2015-Aug-25 08:34N 39°43' W 075°31'3 3.1
2015-Aug-25 07:33N 39°46' W 075°29'4 3.8
2015-Aug-25 06:33N 39°48' W 075°25'0 0.4
2015-Aug-25 05:33N 39°48' W 075°25'7 7.5
2015-Aug-25 04:33N 39°51' W 075°16'0 0.0
2015-Aug-25 03:33N 39°51' W 075°16'1 0.6
2015-Aug-25 02:33N 39°51' W 075°17'1 1.0
2015-Aug-25 01:33N 39°51' W 075°16'1 0.6
2015-Aug-25 00:33N 39°51' W 075°15'0 0.0
2015-Aug-24 23:33N 39°51' W 075°15'0 0.0
2015-Aug-24 22:33N 39°51' W 075°15'1 0.8
2015-Aug-24 21:33N 39°51' W 075°16'3 3.2
2015-Aug-24 20:33N 39°51' W 075°20'0 0.1
2015-Aug-24 19:33N 39°51' W 075°20'9 9.0
2015-Aug-24 18:33N 39°45' W 075°29'2 2.4
2015-Aug-24 17:33N 39°43' W 075°31'0 0.0
2015-Aug-24 16:33N 39°43' W 075°31'0 0.0
2015-Aug-24 15:33N 39°43' W 075°31'0 0.0
2015-Aug-24 14:33N 39°43' W 075°31'0 0.0
2015-Aug-24 13:33N 39°43' W 075°31'0 0.0
2015-Aug-24 12:33N 39°43' W 075°31'0 0.4
2015-Aug-24 11:33N 39°43' W 075°32'0 0.4
2015-Aug-24 10:33N 39°43' W 075°31'0 0.0
2015-Aug-24 09:33N 39°43' W 075°31'  
Track history (hours):
 
Tides and Currents Weather Stations Pressure Air Temp Water Temp Dewpoint Dewpoint Depression Visibility Wind Speed Wind Dir Waves Ship Positions

Madeline

Owner: TUG MADELINE, LLC, NEW CASTLE, DE. More information available from US FCC via Universal Licensing System and Coast Guard Vessel Documentation Center.

Last reported at 2015-Sep-03 08:33 UTC. Time now 2015-Sep-03 08:58 UTC.
Position N 39°48' W 075°26'.

; draft 4.6 m.

Type: Tug. MMSI: 367335830.

Date/timePositionNaut miles runAvg speedWind from/ knotsBaromVisibWave heightAir tempDewpointWater temp
2015-Sep-03 08:33N 39°48' W 075°26'6 6.1
2015-Sep-03 07:33N 39°43' W 075°31'0 0.0
2015-Sep-03 06:34N 39°43' W 075°31'0 0.0
2015-Sep-03 05:34N 39°43' W 075°31'0 0.0
2015-Sep-03 04:33N 39°43' W 075°31'0 0.0
2015-Sep-03 03:33N 39°43' W 075°31'0 0.0
2015-Sep-03 02:33N 39°43' W 075°31'0 0.0
2015-Sep-03 01:33N 39°43' W 075°31'0 0.0
2015-Sep-03 00:34N 39°43' W 075°31'0 0.0
2015-Sep-02 23:33N 39°43' W 075°31'0 0.0
2015-Sep-02 22:33N 39°43' W 075°31'0 0.0
2015-Sep-02 21:33N 39°43' W 075°31'0 0.0
2015-Sep-02 20:34N 39°43' W 075°31'0 0.4
2015-Sep-02 19:33N 39°43' W 075°32'0 0.4
2015-Sep-02 18:34N 39°43' W 075°31'1 0.7
2015-Sep-02 17:34N 39°43' W 075°30'7 6.7
2015-Sep-02 16:34N 39°48' W 075°25'1 0.9
2015-Sep-02 15:34N 39°48' W 075°26'6 6.1
2015-Sep-02 14:33N 39°43' W 075°31'0 0.0
2015-Sep-02 13:33N 39°43' W 075°31'0 0.0
2015-Sep-02 12:33N 39°43' W 075°31'0 0.0
2015-Sep-02 11:33N 39°43' W 075°31'1 0.7
2015-Sep-02 10:33N 39°43' W 075°30'0 0.2
2015-Sep-02 09:33N 39°43' W 075°30'0 0.2
2015-Sep-02 08:33N 39°43' W 075°30'0 0.2
2015-Sep-02 07:34N 39°43' W 075°30'0 0.1
2015-Sep-02 06:33N 39°43' W 075°30'1 0.9
2015-Sep-02 05:34N 39°43' W 075°31'0 0.0
2015-Sep-02 04:34N 39°43' W 075°31'0 0.0
2015-Sep-02 03:33N 39°43' W 075°31'0 0.0
2015-Sep-02 02:33N 39°43' W 075°31'0 0.0
2015-Sep-02 01:33N 39°43' W 075°31'0 0.0
2015-Sep-02 00:33N 39°43' W 075°31'0 0.0
2015-Sep-01 23:33N 39°43' W 075°31'0 0.0
2015-Sep-01 22:34N 39°43' W 075°31'0 0.0
2015-Sep-01 21:34N 39°43' W 075°31'0 0.0
2015-Sep-01 20:33N 39°43' W 075°31'8 7.7
2015-Sep-01 19:34N 39°36' W 075°36'1 1.4
2015-Sep-01 18:34N 39°35' W 075°36'2 2.4
2015-Sep-01 17:34N 39°38' W 075°36'10 9.9
2015-Sep-01 16:33N 39°46' W 075°29'4 3.9
2015-Sep-01 15:33N 39°49' W 075°25'0 0.0
2015-Sep-01 14:33N 39°49' W 075°25'0 0.0
2015-Sep-01 13:34N 39°49' W 075°25'0 0.0
2015-Sep-01 12:34N 39°49' W 075°25'0 0.0
2015-Sep-01 11:33N 39°49' W 075°25'0 0.0
2015-Sep-01 10:34N 39°49' W 075°25'0 0.0
2015-Sep-01 09:34N 39°49' W 075°25'1 1.0
2015-Sep-01 08:34N 39°48' W 075°26'0 0.0
2015-Sep-01 07:34N 39°48' W 075°26'1 0.7
2015-Sep-01 06:33N 39°48' W 075°25'1 0.6
2015-Sep-01 05:34N 39°49' W 075°25'0 0.0
2015-Sep-01 04:33N 39°49' W 075°25'0 0.0
2015-Sep-01 03:34N 39°49' W 075°25'1 1.0
2015-Sep-01 02:33N 39°48' W 075°26'6 6.4
2015-Sep-01 01:34N 39°43' W 075°31'0 0.0
2015-Sep-01 00:34N 39°43' W 075°31'0 0.0
2015-Aug-31 23:33N 39°43' W 075°31'0 0.0
2015-Aug-31 22:33N 39°43' W 075°31'0 0.0
2015-Aug-31 21:33N 39°43' W 075°31'0 0.0
2015-Aug-31 20:33N 39°43' W 075°31'0 0.0
2015-Aug-31 19:34N 39°43' W 075°31'0 0.0
2015-Aug-31 18:34N 39°43' W 075°31'0 0.0
2015-Aug-31 17:33N 39°43' W 075°31'0 0.0
2015-Aug-31 16:34N 39°43' W 075°31'0 0.0
2015-Aug-31 15:34N 39°43' W 075°31'0 0.0
2015-Aug-31 14:33N 39°43' W 075°31'0 0.0
2015-Aug-31 13:33N 39°43' W 075°31'1 0.5
2015-Aug-31 12:34N 39°43' W 075°32'1 0.9
2015-Aug-31 11:33N 39°43' W 075°31'0 0.4
2015-Aug-31 10:33N 39°43' W 075°31'0 0.0
2015-Aug-31 09:33N 39°43' W 075°31'0 0.0
2015-Aug-31 08:33N 39°43' W 075°31'0 0.0
2015-Aug-31 07:33N 39°43' W 075°31'1 1.0
2015-Aug-31 06:34N 39°42' W 075°31'1 1.0
2015-Aug-31 05:34N 39°43' W 075°31'0 0.0
2015-Aug-31 04:34N 39°43' W 075°31'0 0.0
2015-Aug-31 03:34N 39°43' W 075°31'0 0.0
2015-Aug-31 02:34N 39°43' W 075°31'0 0.0
2015-Aug-31 01:33N 39°43' W 075°31'0 0.0
2015-Aug-31 00:34N 39°43' W 075°31'0 0.0
2015-Aug-30 23:33N 39°43' W 075°31'0 0.0
2015-Aug-30 22:33N 39°43' W 075°31'0 0.0
2015-Aug-30 21:34N 39°43' W 075°31'0 0.0
2015-Aug-30 20:34N 39°43' W 075°31'0 0.0
2015-Aug-30 19:33N 39°43' W 075°31'0 0.0
2015-Aug-30 18:33N 39°43' W 075°31'0 0.0
2015-Aug-30 17:33N 39°43' W 075°31'0 0.0
2015-Aug-30 16:33N 39°43' W 075°31'0 0.0
2015-Aug-30 15:34N 39°43' W 075°31'0 0.0
2015-Aug-30 14:33N 39°43' W 075°31'0 0.0
2015-Aug-30 13:33N 39°43' W 075°31'0 0.2
2015-Aug-30 12:34N 39°43' W 075°31'0 0.1
2015-Aug-30 11:34N 39°43' W 075°31'0 0.1
2015-Aug-30 10:34N 39°43' W 075°31'0 0.0
2015-Aug-30 09:33N 39°43' W 075°31'0 0.0
2015-Aug-30 08:33N 39°43' W 075°31'1 0.5
2015-Aug-30 07:33N 39°43' W 075°31'1 0.5
2015-Aug-30 06:34N 39°43' W 075°31'0 0.0
2015-Aug-30 05:33N 39°43' W 075°31'0 0.0
2015-Aug-30 04:34N 39°43' W 075°31'0 0.0
2015-Aug-30 03:33N 39°43' W 075°31'0 0.0
2015-Aug-30 02:34N 39°43' W 075°31'0 0.0
2015-Aug-30 01:34N 39°43' W 075°31'0 0.0
2015-Aug-30 00:34N 39°43' W 075°31'0 0.0
2015-Aug-29 23:34N 39°43' W 075°31'0 0.0
2015-Aug-29 22:33N 39°43' W 075°31'0 0.0
2015-Aug-29 21:34N 39°43' W 075°31'0 0.0
2015-Aug-29 20:33N 39°43' W 075°31'0 0.0
2015-Aug-29 19:33N 39°43' W 075°31'0 0.0
2015-Aug-29 18:33N 39°43' W 075°31'0 0.0
2015-Aug-29 17:34N 39°43' W 075°31'0 0.0
2015-Aug-29 16:33N 39°43' W 075°31'0 0.0
2015-Aug-29 15:34N 39°43' W 075°31'0 0.0
2015-Aug-29 14:33N 39°43' W 075°31'0 0.0
2015-Aug-29 13:33N 39°43' W 075°31'0 0.0
2015-Aug-29 12:34N 39°43' W 075°31'0 0.0
2015-Aug-29 11:33N 39°43' W 075°31'0 0.0
2015-Aug-29 10:34N 39°43' W 075°31'0 0.0
2015-Aug-29 09:34N 39°43' W 075°31'0 0.0
2015-Aug-29 08:33N 39°43' W 075°31'0 0.0
2015-Aug-29 07:33N 39°43' W 075°31'0 0.0
2015-Aug-29 06:33N 39°43' W 075°31'0 0.0
2015-Aug-29 05:34N 39°43' W 075°31'0 0.2
2015-Aug-29 04:33N 39°43' W 075°31'0 0.2
2015-Aug-29 03:34N 39°43' W 075°31'0 0.0
2015-Aug-29 02:33N 39°43' W 075°31'0 0.0
2015-Aug-29 01:33N 39°43' W 075°31'1 0.8
2015-Aug-29 00:34N 39°42' W 075°31'1 0.8
2015-Aug-28 23:33N 39°43' W 075°31'0 0.0
2015-Aug-28 22:33N 39°43' W 075°31'0 0.0
2015-Aug-28 21:34N 39°43' W 075°31'0 0.0
2015-Aug-28 20:33N 39°43' W 075°31'0 0.0
2015-Aug-28 19:34N 39°43' W 075°31'0 0.0
2015-Aug-28 18:33N 39°43' W 075°31'0 0.0
2015-Aug-28 17:34N 39°43' W 075°31'0 0.0
2015-Aug-28 16:34N 39°43' W 075°31'0 0.0
2015-Aug-28 15:33N 39°43' W 075°31'0 0.0
2015-Aug-28 14:34N 39°43' W 075°31'0 0.0
2015-Aug-28 13:33N 39°43' W 075°31'0 0.0
2015-Aug-28 12:34N 39°43' W 075°31'0 0.1
2015-Aug-28 11:33N 39°43' W 075°31'1 1.4
2015-Aug-28 10:33N 39°42' W 075°31'1 1.5
2015-Aug-28 09:34N 39°43' W 075°31'0 0.0
2015-Aug-28 08:34N 39°43' W 075°31'0 0.0
2015-Aug-28 07:33N 39°43' W 075°31'0 0.0
2015-Aug-28 06:34N 39°43' W 075°31'0 0.0
2015-Aug-28 05:34N 39°43' W 075°31'0 0.0
2015-Aug-28 04:34N 39°43' W 075°31'0 0.0
2015-Aug-28 03:34N 39°43' W 075°31'0 0.0
2015-Aug-28 02:34N 39°43' W 075°31'0 0.0
2015-Aug-28 01:33N 39°43' W 075°31'3 2.8
2015-Aug-28 00:33N 39°45' W 075°29'4 4.5
2015-Aug-27 23:34N 39°49' W 075°25'0 0.0
2015-Aug-27 22:34N 39°49' W 075°25'0 0.0
2015-Aug-27 21:34N 39°49' W 075°25'0 0.0
2015-Aug-27 20:33N 39°49' W 075°25'0 0.0
2015-Aug-27 19:34N 39°49' W 075°25'0 0.0
2015-Aug-27 18:34N 39°49' W 075°25'0 0.0
2015-Aug-27 17:34N 39°49' W 075°25'1 1.0
2015-Aug-27 16:33N 39°48' W 075°26'1 0.5
2015-Aug-27 15:33N 39°48' W 075°25'0 0.5
2015-Aug-27 14:33N 39°48' W 075°26'6 6.4
2015-Aug-27 13:34N 39°43' W 075°31'0 0.0
2015-Aug-27 12:34N 39°43' W 075°31'0 0.0
2015-Aug-27 11:33N 39°43' W 075°31'0 0.0
2015-Aug-27 10:33N 39°43' W 075°31'0 0.0
2015-Aug-27 09:34N 39°43' W 075°31'0 0.0
2015-Aug-27 08:34N 39°43' W 075°31'0 0.0
2015-Aug-27 07:34N 39°43' W 075°31'0 0.0
2015-Aug-27 06:33N 39°43' W 075°31'0 0.0
2015-Aug-27 05:34N 39°43' W 075°31'0 0.0
2015-Aug-27 04:34N 39°43' W 075°31'0 0.1
2015-Aug-27 03:33N 39°43' W 075°31'1 0.7
2015-Aug-27 02:34N 39°43' W 075°30'1 0.7
2015-Aug-27 01:34N 39°43' W 075°31'0 0.3
2015-Aug-27 00:34N 39°43' W 075°31'0 0.2
2015-Aug-26 23:34N 39°43' W 075°31'0 0.0
2015-Aug-26 22:34N 39°43' W 075°31'0 0.0
2015-Aug-26 21:33N 39°43' W 075°31'0 0.0
2015-Aug-26 20:34N 39°43' W 075°31'0 0.0
2015-Aug-26 19:33N 39°43' W 075°31'0 0.0
2015-Aug-26 18:34N 39°43' W 075°31'0 0.0
2015-Aug-26 17:33N 39°43' W 075°31'0 0.0
2015-Aug-26 16:33N 39°43' W 075°31'0 0.0
2015-Aug-26 15:34N 39°43' W 075°31'0 0.0
2015-Aug-26 14:33N 39°43' W 075°31'0 0.0
2015-Aug-26 13:34N 39°43' W 075°31'0 0.0
2015-Aug-26 12:33N 39°43' W 075°31'0 0.0
2015-Aug-26 11:33N 39°43' W 075°31'0 0.0
2015-Aug-26 10:33N 39°43' W 075°31'0 0.0
2015-Aug-26 09:34N 39°43' W 075°31'0 0.0
2015-Aug-26 08:34N 39°43' W 075°31'0 0.0
2015-Aug-26 07:33N 39°43' W 075°31'0 0.0
2015-Aug-26 06:34N 39°43' W 075°31'0 0.0
2015-Aug-26 05:33N 39°43' W 075°31'0 0.0
2015-Aug-26 04:33N 39°43' W 075°31'0 0.0
2015-Aug-26 03:33N 39°43' W 075°31'0 0.0
2015-Aug-26 02:33N 39°43' W 075°31'0 0.0
2015-Aug-26 01:34N 39°43' W 075°31'0 0.0
2015-Aug-26 00:34N 39°43' W 075°31'0 0.0
2015-Aug-25 23:33N 39°43' W 075°31'0 0.0
2015-Aug-25 22:33N 39°43' W 075°31'0 0.0
2015-Aug-25 21:34N 39°43' W 075°31'0 0.0
2015-Aug-25 20:34N 39°43' W 075°31'0 0.0
2015-Aug-25 19:34N 39°43' W 075°31'0 0.0
2015-Aug-25 18:34N 39°43' W 075°31'0 0.0
2015-Aug-25 17:33N 39°43' W 075°31'1 0.5
2015-Aug-25 16:34N 39°43' W 075°31'1 0.5
2015-Aug-25 15:33N 39°43' W 075°31'0 0.0
2015-Aug-25 14:33N 39°43' W 075°31'0 0.0
2015-Aug-25 13:33N 39°43' W 075°31'0 0.0
2015-Aug-25 12:33N 39°43' W 075°31'0 0.0
2015-Aug-25 11:33N 39°43' W 075°31'0 0.0
2015-Aug-25 10:33N 39°43' W 075°31'0 0.0
2015-Aug-25 09:33N 39°43' W 075°31'0 0.3
2015-Aug-25 08:34N 39°43' W 075°31'3 3.1
2015-Aug-25 07:33N 39°46' W 075°29'4 3.8
2015-Aug-25 06:33N 39°48' W 075°25'0 0.4
2015-Aug-25 05:33N 39°48' W 075°25'7 7.5
2015-Aug-25 04:33N 39°51' W 075°16'0 0.0
2015-Aug-25 03:33N 39°51' W 075°16'1 0.6
2015-Aug-25 02:33N 39°51' W 075°17'1 1.0
2015-Aug-25 01:33N 39°51' W 075°16'1 0.6
2015-Aug-25 00:33N 39°51' W 075°15'0 0.0
2015-Aug-24 23:33N 39°51' W 075°15'0 0.0
2015-Aug-24 22:33N 39°51' W 075°15'1 0.8
2015-Aug-24 21:33N 39°51' W 075°16'3 3.2
2015-Aug-24 20:33N 39°51' W 075°20'0 0.1
2015-Aug-24 19:33N 39°51' W 075°20'9 9.0
2015-Aug-24 18:33N 39°45' W 075°29'2 2.4
2015-Aug-24 17:33N 39°43' W 075°31'0 0.0
2015-Aug-24 16:33N 39°43' W 075°31'0 0.0
2015-Aug-24 15:33N 39°43' W 075°31'0 0.0
2015-Aug-24 14:33N 39°43' W 075°31'0 0.0
2015-Aug-24 13:33N 39°43' W 075°31'0 0.0
2015-Aug-24 12:33N 39°43' W 075°31'0 0.4
2015-Aug-24 11:33N 39°43' W 075°32'0 0.4
2015-Aug-24 10:33N 39°43' W 075°31'0 0.0
2015-Aug-24 09:33N 39°43' W 075°31'  

Dump ship's entire track history